Du har inga inställningar för hoppväder.nu

Hoppväder.nu

Senast uppdaterat 20:04

UTC-tid

2019-08-18 kl. 18:04


Sol och måne

Solen går upp 5:31 och går ner 21:36 (beräknade cirkatider)
Nästa fullmåne blir om 27 dagar (2019-09-14)

METAR

ESOE (Örebro)
(14 minuter sedan)
ESOE 181750Z AUTO 18007KT 9999 NCD 18/13 Q1002=



ESOK (Karlstad)
(14 minuter sedan)
ESOK 181750Z VRB02KT 9999 -SHRA SCT027 BKN060 16/14 Q1002=



ESGR (Skövde)
(14 minuter sedan)
ESGR 181750Z AUTO 16007KT 9999 SCT078/// 16/15 Q1002=



ESSD (Borlänge)
(14 minuter sedan)
ESSD 181750Z AUTO 15004KT 9999 OVC084/// 17/14 Q1002=



ESOW (Västerås)
(14 minuter sedan)
ESOW 181750Z AUTO 19004KT 9999 BKN025/// 16/14 Q1003=



TAF

ESOE (Örebro)
(214 minuter sedan)
ESOE 181430Z 1815/1818 20005KT 9999 SCT025 PROB40 1815/1818 SHRA BKN040CB=



ESOK (Karlstad)
(94 minuter sedan)
ESOK 181630Z 1817/1821 18007KT 9999 SCT045 TEMPO 1817/1821 SHRA BKN030CB=



ESGR (Skövde)
ESGR



ESSD (Borlänge)
ESSD



ESOW (Västerås)
(394 minuter sedan)
ESOW 181130Z 1812/1816 20005KT 9999 SCT025 PROB40 1812/1816 SHRA BKN012 BKN030CB=





Kodnycklar till TAF och METAR






LHP

(Örebro är område G2a i Södra delen)

ÖVERSIKT FÖR OMRÅDE B UTFÄRDAD 181152
GÄLLANDE DEN 18 AUGUSTI 2019 MELLAN 12 OCH 20 UTC


Väderöversikt

En labil, sydlig luftström råder över södra Sverige

Sikt under 5 kilometer eller molnbas under 1000 fot
12-16UTC: Område Norra delen och Södra delen
16-18UTC: Hela området utom Sydöstra delen
18-20UTC: I hela området


Måttlig eller svår isbildning
12-14UTC: Hela området utom Norra delen
14-20UTC: I hela området


Måttlig eller svår turbulens
Väntas inte förekomma under perioden

PROGNOS FÖR OMRÅDE B DEN SÖDRA DELEN UTFÄRDAD 181152
GÄLLANDE DEN 18 AUGUSTI 2019 MELLAN 12 OCH 20 UTC

Måttlig eller svår turbulens
12-20UTC: I hela området: Väntas inte förekomma under perioden

Måttlig eller svår isbildning
12-14UTC: Område G1a,G2b,G2c: Väntas inte förekomma under perioden

12-18UTC: Område G1c,G1b,G2a,G3a,G3c,G3b,G3d: måttlig isbildning FL090 - > FL125

14-18UTC: Område G1a,G2b,G2c: måttlig isbildning FL090 - > FL125

18-20UTC: I hela området: måttlig isbildning FL080 - > FL125

Sikt/Väder/Moln
12-14UTC: Område G1b,G2b,G2a,G3a,G3c,G3b,G3d: Sikt 3km - >8km i regnskurar, åska. Molnbas 1500ft - >2000ft.

12-16UTC: Område G1a: Sikt 5km - >8km. Molnbas >2000ft.
Område G1c: Sikt >8km. Molnbas >2000ft.

12-18UTC: Område G2c: Sikt >8km. Molnbas >2000ft.

14-16UTC: Område G2b,G3a: Sikt 3km - >8km i regnskurar, åska. Molnbas 1000ft - >2000ft.
Område G3c,G3d: Sikt >8km. Molnbas >2000ft.

14-18UTC: Område G2a: Sikt >8km, lokalt 5km - 8km i regnskurar. Molnbas >2000ft.
Område G1b: Sikt >8km. Molnbas >2000ft.
Område G3b: Sikt 5km - >8km i regnskurar. Molnbas >2000ft.

16-18UTC: Område G1c,G3c,G3d: Sikt 3km - >8km i regnskurar, åska. Molnbas 1000ft - >2000ft.
Område G2b,G3a: Sikt 5km - >8km i regnskurar. Molnbas >2000ft.

16-20UTC: Område G1a: Sikt >8km. Molnbas >2000ft.

18-20UTC: Område G2b,G2c,G3a: Sikt 3km - >8km i regnskurar, åska. Molnbas 1000ft - >2000ft.
Område G1c,G1b,G3c,G3d: Sikt 1.5km - >8km i regnskurar, åska. Molnbas 500ft - >2000ft.
Område G2a,G3b: Sikt >8km i regnskurar, lokalt 3km - 5km i åska. Molnbas >2000ft, lokalt 1000ft - 1500ft.


Molnöversida
12-20UTC: I hela området: Molnöversida > FL125.

CB/TCU Moln
12-14UTC: Område G2a,G3b: TCU, ISOL EMBD CB
Område G1b,G2b,G3a,G3c,G3d: ISOL EMBD CB

12-16UTC: Område G1a: ISOL CB
Område G1c: Väntas inte förekomma under perioden

12-18UTC: Område G2c: Väntas inte förekomma under perioden

14-16UTC: Område G2b,G3a: TCU, OCNL EMBD CB
Område G3c,G3d: Väntas inte förekomma under perioden

14-18UTC: Område G2a,G3b: TCU
Område G1b: Väntas inte förekomma under perioden

16-18UTC: Område G3c,G3d: TCU, ISOL EMBD CB
Område G2b,G3a: TCU
Område G1c: ISOL EMBD CB

16-20UTC: Område G1a: Väntas inte förekomma under perioden

18-20UTC: Område G1c,G1b,G3c,G3d: ISOL EMBD CB, OCNL EMBD CB
Område G2b,G2a,G2c,G3a,G3b: ISOL EMBD CB


Nollgradersisoterm
12-20UTC: Noll grader FL075 - FL110.

Vind vid marken
12-14UTC: Område G3a: S-SV/0-10 knop, byar upp till 19 knop.
Område G3c: SV/0-5 knop, byar upp till 14 knop.
Område G2a: S/1-8 knop, byar upp till 16 knop.
Område G3b: S-SV/0-6 knop, byar upp till 12 knop.
Område G1a: S/5-23 knop, byar upp till 29 knop.
Område G3d: S-SV/0-9 knop, byar upp till 18 knop.
Område G2b: S-SV/0-10 knop, byar upp till 18 knop.
Område G1c: S-SV/3-15 knop, byar upp till 20 knop.
Område G2c: SO-S/3-8 knop, byar upp till 16 knop.
Område G1b: S/1-15 knop, byar upp till 20 knop.

14-16UTC: Område G1b: S-SV/1-14 knop, byar upp till 19 knop.
Område G2b: SV/0-12 knop, byar upp till 20 knop.
Område G3a: S-SV/0-10 knop, byar upp till 20 knop.
Område G1c: S/0-12 knop, byar upp till 17 knop.
Område G2a: SO-S/2-7 knop.
Område G3c: SO-S/0-4 knop, byar upp till 12 knop.
Område G3b: S/0-5 knop, byar upp till 11 knop.
Område G3d: S/0-8 knop, byar upp till 15 knop.
Område G2c: S/4-11 knop, byar upp till 20 knop.
Område G1a: S/5-19 knop, byar upp till 24 knop.

16-18UTC: Område G1b: S/0-15 knop, byar upp till 20 knop.
Område G2a: SO-S/1-9 knop, byar upp till 13 knop.
Område G3a: SO-S/0-7 knop, byar upp till 15 knop.
Område G1c: SO-S/0-17 knop, byar upp till 21 knop.
Område G3d: SO-S/0-7 knop, byar upp till 12 knop.
Område G3c: SO-S/0-6 knop, byar upp till 11 knop.
Område G3b: SO-S/0-6 knop.
Område G1a: S/3-16 knop, byar upp till 21 knop.
Område G2c: S/1-8 knop, byar upp till 18 knop.
Område G2b: SO-S/0-8 knop, byar upp till 13 knop.

18-20UTC: Område G2a: SO-S/1-13 knop, byar upp till 17 knop.
Område G2b: SO-S/0-10 knop, byar upp till 16 knop.
Område G3a: SO-S/0-7 knop, byar upp till 14 knop.
Område G1c: SO-S/2-16 knop, byar upp till 19 knop.
Område G3c: O/0-5 knop, byar upp till 11 knop.
Område G3b: SO-S/0-8 knop, byar upp till 18 knop.
Område G3d: SO/0-10 knop, byar upp till 19 knop.
Område G2c: SO-S/3-9 knop, byar upp till 16 knop.
Område G1a: S/3-13 knop, byar upp till 21 knop.
Område G1b: S/1-15 knop, byar upp till 20 knop.


Genomsnittlig vind och temperatur för området
2000ft:
12-14UTC: 200/13kt +13.
14-16UTC: 210/13kt +13.
16-18UTC: 200/13kt +13.
18-20UTC: 190/16kt +13.

FL50:
12-14UTC: 210/18kt +6.
14-16UTC: 210/19kt +8.
16-18UTC: 210/21kt +8.
18-20UTC: 190/23kt +6.

FL100:
12-14UTC: 210/28kt -1.
14-16UTC: 200/34kt -1.
16-18UTC: 210/38kt -1.
18-20UTC: 210/39kt -1.

Lägsta QNH
1001 hPa.

OBS! endast utbredd måttlig eller svår isbildning och turbulens prognostiseras i LLF.
Avsaknad av isbildning och turbulens i prognosen utesluter inte förekomst av lätt isbildning och turbulens.
För indikation på lätt isbildning, var vänlig kontrollera om prognosen för molntopp ligger högre än nollgradersisotermen.
Förekomst av TCU eller CB medför alltid en risk för måttlig eller svår isbildning och turbulens även om det inte framgår explicit av prognosen.





Spotting

Hur fungerar spotthjälpen och Vindkartan?

Markvind är ca 1-7 m/s med byar på 9 m/s.
Vind på 600 m ca 8 m/s.
Vind på 1500 m ca 12 m/s.
Vind på 3000 m ca 20 m/s.
FXB flyger ca 16 m/s över marken på finalen.
Du driver ca 903 m bakåt i frifall. (1204 m)
Lämplig spot är 38 sekunder eller 606 m efter gropen.
(57 s eller 909 m)
För små grupper eller ensamhoppare bör man vänta 9-13 sekunder mellan grupperna.
För större grupper bör man vänta 19-22 sekunder mellan grupperna.


Vindkartan

Senast uppdaterad 20:04




All data kommer från LFV.se